createdAt,value
2019-04-04T00:01:06.865Z,5.16
2019-04-04T00:07:01.823Z,4.98
2019-04-04T00:12:56.859Z,4.23
2019-04-04T00:18:51.859Z,4.89
2019-04-04T00:24:46.880Z,4.92
2019-04-04T00:30:41.840Z,5.02
2019-04-04T00:36:36.888Z,5.16
2019-04-04T00:42:31.908Z,5.51
2019-04-04T00:48:26.924Z,4.86
2019-04-04T00:54:21.894Z,4.79
2019-04-04T01:00:16.885Z,5.64
2019-04-04T01:06:11.888Z,5.81
2019-04-04T01:12:06.869Z,6.08
2019-04-04T01:18:01.902Z,5.65
2019-04-04T01:23:58.292Z,5.89
2019-04-04T01:29:51.890Z,6.23
2019-04-04T01:35:46.897Z,6.36
2019-04-04T01:41:41.904Z,5.76
2019-04-04T01:47:36.894Z,6.5
2019-04-04T01:53:31.921Z,5.1
2019-04-04T01:59:26.905Z,6.91
2019-04-04T02:05:21.927Z,6.53
2019-04-04T02:11:16.889Z,6.32
2019-04-04T02:17:11.903Z,6.88
2019-04-04T02:23:06.905Z,6.81
2019-04-04T02:29:01.931Z,6.64
2019-04-04T02:34:56.934Z,6.62
2019-04-04T02:40:51.911Z,5.52
2019-04-04T02:46:46.918Z,5.44
2019-04-04T02:52:45.625Z,6.35
2019-04-04T02:58:36.959Z,6.38
2019-04-04T03:04:31.929Z,6.37
2019-04-04T03:10:26.933Z,6.03
2019-04-04T03:16:22.533Z,5.5
2019-04-04T03:22:16.987Z,5.8
2019-04-04T03:28:11.982Z,5.53
2019-04-04T03:34:10.812Z,5.36
2019-04-04T03:40:01.989Z,6.1
2019-04-04T03:46:00.113Z,6.14
2019-04-04T03:51:51.982Z,6.61
2019-04-04T03:57:46.970Z,6.74
2019-04-04T04:03:41.983Z,6.63
2019-04-04T04:09:36.986Z,7.35
2019-04-04T04:15:31.965Z,6.61
2019-04-04T04:21:26.974Z,5.86
2019-04-04T04:27:21.981Z,6.5
2019-04-04T04:33:16.982Z,6.79
2019-04-04T04:39:11.999Z,5.9
2019-04-04T04:45:10.832Z,6.6
2019-04-04T04:51:02.005Z,6.8
2019-04-04T04:56:56.996Z,6.04
2019-04-04T05:02:53.058Z,6.43
2019-04-04T05:08:47.005Z,5.87
2019-04-04T05:14:42.016Z,4.29
2019-04-04T05:20:37.008Z,6.23
2019-04-04T05:26:32.216Z,6.88
2019-04-04T05:32:27.034Z,7.21
2019-04-04T05:38:22.004Z,9.98
2019-04-04T05:44:17.047Z,6.6
2019-04-04T05:50:12.115Z,7.32
2019-04-04T05:56:07.075Z,6.3
2019-04-04T06:02:02.489Z,6.13
2019-04-04T06:07:57.041Z,6.74
2019-04-04T06:13:52.102Z,7.19
2019-04-04T06:19:47.046Z,5.47
2019-04-04T06:25:42.036Z,6.84
2019-04-04T06:31:37.038Z,7.27
2019-04-04T06:37:34.120Z,6.48
2019-04-04T06:43:27.059Z,7.5
2019-04-04T06:49:22.049Z,6.48
2019-04-04T06:55:17.073Z,7.86
2019-04-04T07:01:12.070Z,6.73
2019-04-04T07:07:07.066Z,6.34
2019-04-04T07:13:14.724Z,5.96
2019-04-04T07:18:57.065Z,6.49
2019-04-04T07:24:52.061Z,6.46
2019-04-04T07:30:47.103Z,5.91
2019-04-04T07:36:42.114Z,5.94
2019-04-04T07:42:39.994Z,5.79
2019-04-04T07:48:32.111Z,5.16
2019-04-04T07:54:27.125Z,4.93
2019-04-04T08:00:22.094Z,4.65
2019-04-04T08:06:17.095Z,5.02
2019-04-04T08:12:12.102Z,5
2019-04-04T08:18:07.130Z,5.7
2019-04-04T08:24:02.132Z,5.08
2019-04-04T08:29:57.107Z,5.26
2019-04-04T08:35:52.123Z,5.26
2019-04-04T08:41:47.118Z,4.89
2019-04-04T08:47:42.124Z,5.2
2019-04-04T08:53:40.006Z,5.57
2019-04-04T08:59:32.156Z,5.1
2019-04-04T09:05:27.142Z,4.91
2019-04-04T09:11:22.113Z,4.79
2019-04-04T09:17:17.123Z,4.7
2019-04-04T09:23:12.129Z,5.69
2019-04-04T09:29:07.142Z,5.2
2019-04-04T09:35:02.184Z,5.36
2019-04-04T09:40:57.157Z,5.01
2019-04-04T09:47:04.494Z,4.64
2019-04-04T09:52:47.184Z,5.01
2019-04-04T09:58:42.166Z,4.68
2019-04-04T10:04:37.162Z,4.51
2019-04-04T10:10:32.231Z,4.5
2019-04-04T10:16:27.182Z,4.39
2019-04-04T10:22:22.214Z,4.37
2019-04-04T10:28:17.176Z,4.45
2019-04-04T10:34:12.181Z,4.09
2019-04-04T10:40:07.184Z,3.98
2019-04-04T10:46:02.173Z,4.32
2019-04-04T10:51:57.212Z,4.62
2019-04-04T10:57:52.196Z,4.53
2019-04-04T11:03:47.227Z,4.58
2019-04-04T11:09:42.450Z,4.88
2019-04-04T11:15:37.252Z,4.74
2019-04-04T11:21:32.187Z,4.8
2019-04-04T11:27:27.229Z,6.23
2019-04-04T11:33:22.212Z,6.71
2019-04-04T11:39:17.209Z,6.19
2019-04-04T11:45:12.228Z,6.07
2019-04-04T11:51:07.224Z,4.85
2019-04-04T11:57:02.243Z,4.25
2019-04-04T12:02:57.233Z,3.9
2019-04-04T12:08:52.281Z,4.63
2019-04-04T12:14:47.233Z,4.81
2019-04-04T12:20:43.418Z,5.5
2019-04-04T12:26:37.251Z,4.71
2019-04-04T12:32:32.249Z,4.5
2019-04-04T12:38:27.247Z,4.25
2019-04-04T12:44:22.310Z,3.94
2019-04-04T12:50:17.264Z,3.7
2019-04-04T12:56:12.274Z,3.79
2019-04-04T13:02:07.272Z,4.35
2019-04-04T13:08:02.271Z,4.13
2019-04-04T13:13:57.281Z,3.82
2019-04-04T13:19:52.298Z,3.7
2019-04-04T13:25:47.281Z,4.08
2019-04-04T13:31:42.284Z,3.44
2019-04-04T13:37:37.283Z,3.36
2019-04-04T13:43:32.287Z,3.92
2019-04-04T13:49:27.274Z,3.71
2019-04-04T13:55:22.314Z,3.98
2019-04-04T14:01:17.305Z,3.65
2019-04-04T14:07:12.362Z,3.96
2019-04-04T14:13:07.298Z,3.23
2019-04-04T14:19:02.329Z,0.95
2019-04-04T14:24:57.323Z,4.21
2019-04-04T14:30:52.358Z,1.81
2019-04-04T14:36:47.314Z,1.25
2019-04-04T14:42:42.314Z,1.26
2019-04-04T14:48:37.327Z,3.44
2019-04-04T14:54:32.345Z,5.4
2019-04-04T15:00:27.306Z,5.34
2019-04-04T15:06:22.346Z,4.04
2019-04-04T15:12:17.351Z,2.73
2019-04-04T15:18:12.373Z,1.85
2019-04-04T15:24:07.371Z,1.04
2019-04-04T15:30:02.353Z,1
2019-04-04T15:35:57.341Z,1.54
2019-04-04T15:41:52.366Z,3.96
2019-04-04T15:47:47.371Z,10.69
2019-04-04T15:53:42.383Z,4.57
2019-04-04T15:59:37.359Z,5.06
2019-04-04T16:05:32.411Z,2.3
2019-04-04T16:11:27.361Z,5.34
2019-04-04T16:17:22.405Z,1.52
2019-04-04T16:23:17.401Z,2.51
2019-04-04T16:29:12.346Z,1.05
2019-04-04T16:35:07.390Z,1.36
2019-04-04T16:41:02.424Z,1.03
2019-04-04T16:46:57.395Z,1.39
2019-04-04T16:52:52.376Z,2.24
2019-04-04T16:58:47.395Z,1.05
2019-04-04T17:04:42.416Z,1.47
2019-04-04T17:10:37.427Z,1.59
2019-04-04T17:16:32.419Z,1.65
2019-04-04T17:22:29.161Z,1.96
2019-04-04T17:28:22.528Z,1.16
2019-04-04T17:34:17.423Z,1.18
2019-04-04T17:40:12.437Z,1.66
2019-04-04T17:46:07.418Z,1.61
2019-04-04T17:52:02.897Z,3.89
2019-04-04T17:57:57.906Z,1.85
2019-04-04T18:03:52.467Z,2.01
2019-04-04T18:09:47.493Z,2.27
2019-04-04T18:15:42.443Z,2.23
2019-04-04T18:21:37.452Z,4.93
2019-04-04T18:27:32.473Z,3.12
2019-04-04T18:33:27.462Z,1.99
2019-04-04T18:39:22.428Z,2.66
2019-04-04T18:45:17.559Z,1.3
2019-04-04T18:51:12.478Z,1.59
2019-04-04T18:57:07.445Z,1.27
2019-04-04T19:03:02.461Z,1.2
2019-04-04T19:08:57.453Z,1.53
2019-04-04T19:14:52.463Z,1.71
2019-04-04T19:20:47.493Z,3.58
2019-04-04T19:26:42.473Z,1.7
2019-04-04T19:32:37.476Z,2.3
2019-04-04T19:38:32.473Z,2.1
2019-04-04T19:44:27.469Z,3.01
2019-04-04T19:50:22.500Z,2.2
2019-04-04T19:56:17.565Z,2.37
2019-04-04T20:02:12.466Z,2.31
2019-04-04T20:08:07.471Z,2.46
2019-04-04T20:14:02.549Z,1.83
2019-04-04T20:19:57.491Z,1.55
2019-04-04T20:25:52.473Z,1.26
2019-04-04T20:31:47.495Z,1.53
2019-04-04T20:37:42.501Z,1.66
2019-04-04T20:43:42.994Z,1.55
2019-04-04T20:49:32.502Z,1.35
2019-04-04T20:55:27.514Z,1.32
2019-04-04T21:01:22.542Z,1.25
2019-04-04T21:07:17.522Z,1.24
2019-04-04T21:13:12.534Z,1.28
2019-04-04T21:19:07.531Z,1.41
2019-04-04T21:25:02.545Z,1.05
2019-04-04T21:30:57.539Z,1.2
2019-04-04T21:36:52.558Z,1.16
2019-04-04T21:42:47.525Z,1.14
2019-04-04T21:48:42.571Z,1.37
2019-04-04T21:54:37.542Z,1.2
2019-04-04T22:00:32.556Z,1.33
2019-04-04T22:06:27.603Z,7.33
2019-04-04T22:12:22.549Z,2.49
2019-04-04T22:18:17.575Z,1.45
2019-04-04T22:24:12.545Z,1.42
2019-04-04T22:30:07.577Z,1.42
2019-04-04T22:36:02.560Z,2.37
2019-04-04T22:41:57.590Z,13.68
2019-04-04T22:47:52.592Z,29.98
2019-04-04T22:53:47.546Z,3.78
2019-04-04T22:59:42.581Z,1.64
2019-04-04T23:05:37.568Z,3.52
2019-04-04T23:11:32.568Z,1.59
2019-04-04T23:17:27.582Z,1.47
2019-04-04T23:23:22.614Z,1.3
2019-04-04T23:29:17.595Z,1.25
2019-04-04T23:35:12.653Z,1.32
2019-04-04T23:41:07.628Z,1.29
2019-04-04T23:47:02.614Z,1.38
2019-04-04T23:52:57.619Z,1.62
2019-04-04T23:58:52.591Z,1.7
